KOAK/OAK METAR and TAF weather

Enter ICAO airport designator
Station Type Date Time Source
KOAK METAR 2024/06/16 08:53 UTC NOAA

KOAK 160853Z 00000KT 10SM CLR 14/11 A2991 RMK AO2 SLP129 T01390106 58006


Station Type Date Time Source
KOAK Decoded METAR 2024/06/16 08:53 UTC NOAA

METRO OAKLAND INTERNATIONAL AIRPORT , CA, United States (KOAK) 37-43N 122-14W 26M
Jun 16, 2024 - 04:53 AM EDT / 2024.06.16 0853 UTC
Wind: Calm:0
Visibility: 10 mile(s):0
Sky conditions: clear
Temperature: 57.0 F (13.9 C)
Dew Point: 51.1 F (10.6 C)
Relative Humidity: 80%
Pressure (altimeter): 29.91 in. Hg (1012 hPa)
Pressure tendency: 0.02 inches (0.6 hPa) lower than three hours ago
ob: KOAK 160853Z 00000KT 10SM CLR 14/11 A2991 RMK AO2 SLP129 T01390106 58006
cycle: 9

Station Type Date Time Source
KOAK TAF 2024/06/16 06:22 UTC NOAA